Aeroporto :
LOGIN :

Iscrizione | Disclaimer

   EN    FR    IT 

 










Sommario :    VFR   VFR Marginale   IFR   IFR Intensivo   IFR Molto Intensivo
Visibilità : 
Base nubi : 
>= 8 km
>= 3000ft
5 / 8 km
1000 / 3000 ft
1500m / 5 km
500 / 1000 ft
800 / 1500m
200 / 500 ft
< 800m
< 200 ft
Simboli :   Temporali  Nebbia  Neve Forte  Precipitazioni Forti  Vento > 20 kt
SIGMETs :   Varie  Temporali  Ghiacco  Turbolenza  Onda orograficha  Ceneri Vulcaniche







- Altitudine del aeroporto : 171 ft
- Codice IATA : EGC
- Carte del aeroporto


LFBE - Bergerac

ULTIMO METAR :
  • 130430Z AUTO 27002KT 4600 BR BKN001 BKN062 BKN072 11/10 Q1026

METARs OBSOLETI :
  • 130400Z AUTO 29003KT 6000 -RA NSC 11/10 Q1026
  • 130330Z AUTO 00000KT 3500 1400 R27/P2500 BR FEW003 OVC098 11/10 Q1025
  • 130300Z AUTO 28002KT 5000 -RA BR BKN009 OVC098 11/11 Q1025
  • 130230Z AUTO VRB01KT 6000 -RA BKN010 BKN020 BKN036 11/11 Q1025
  • 130200Z AUTO VRB02KT 9000 -RA BKN010/// OVC086/// ///TCU 11/11 Q1025
  • 130130Z AUTO 00000KT 9999 -RA FEW040/// OVC082/// ///TCU 11/11 Q1024

TAF TAF LFBE
Valido dal 12 a 18 ore il 13 a 18 ore UTC


121700Z 1218/1318 30005KT 9999 BKN040
TEMPO 1218/1224 -RA
PROB30
TEMPO 1218/1224 3000 RA BKN005 OVC040
PROB30
TEMPO 1304/1307 0800 BCFG
PROB30
TEMPO 1307/1310 BKN007
BECMG 1310/1312 03005KT CAVOK
Nessun NOTAM noto per questo aeroporto.



MetMap, La meteo Aeronautica in un colpo d'occhio ! - Copyright ORBIFLY Dicembre 2007 - Disclaimer

ORBIFLY MET'MAP TEAM :

Programmazione e sviluppo : Alexandra Zaïnal
Concezione e sviluppo : Baudouin d'Aumeries
Co-Programmazione e sviluppo : Marc-Olivier Méhu
Supporto tecnico e logistico : Manuel Goepfert
Aiuto per la traduzione : Arnaldo La Scala

Contatto : metmap@orbifly.com




FONTI E CREDITI :

   NOAA